createdAt,value
2022-11-17T00:01:15.446Z,5.90
2022-11-17T00:03:45.413Z,4.83
2022-11-17T00:06:15.517Z,5.20
2022-11-17T00:08:45.603Z,6.07
2022-11-17T00:11:15.644Z,5.65
2022-11-17T00:14:04.039Z,6.63
2022-11-17T00:16:34.076Z,5.00
2022-11-17T00:19:22.146Z,5.68
2022-11-17T00:21:52.157Z,6.10
2022-11-17T00:24:24.305Z,5.22
2022-11-17T00:27:03.360Z,7.90
2022-11-17T00:29:37.367Z,6.40
2022-11-17T00:32:30.870Z,6.70
2022-11-17T00:35:02.291Z,6.55
2022-11-17T00:37:32.498Z,6.28
2022-11-17T00:40:02.905Z,6.55
2022-11-17T00:42:33.168Z,7.00
2022-11-17T00:45:04.041Z,7.13
2022-11-17T00:47:38.287Z,6.85
2022-11-17T00:50:09.624Z,6.53
2022-11-17T00:52:40.609Z,5.70
2022-11-17T00:55:11.706Z,7.28
2022-11-17T00:57:44.977Z,7.13
2022-11-17T01:00:15.091Z,6.75
2022-11-17T01:02:45.096Z,7.15
2022-11-17T01:05:15.112Z,7.95
2022-11-17T01:07:45.168Z,8.07
2022-11-17T01:10:26.135Z,7.07
2022-11-17T01:12:59.300Z,8.05
2022-11-17T01:15:29.412Z,8.68
2022-11-17T01:17:59.328Z,7.38
2022-11-17T01:20:29.398Z,7.97
2022-11-17T01:23:03.339Z,7.68
2022-11-17T01:25:33.520Z,10.80
2022-11-17T01:28:03.520Z,8.35
2022-11-17T01:30:33.561Z,9.65
2022-11-17T01:33:03.525Z,7.82
2022-11-17T01:35:36.047Z,7.28
2022-11-17T01:40:35.437Z,9.60
2022-11-17T01:43:07.397Z,9.77
2022-11-17T01:45:37.573Z,9.50
2022-11-17T01:48:07.740Z,9.02
2022-11-17T01:50:46.848Z,8.25
2022-11-17T01:53:17.803Z,9.68
2022-11-17T01:55:52.218Z,8.82
2022-11-17T01:58:23.985Z,9.90
2022-11-17T02:00:55.230Z,8.30
2022-11-17T02:03:25.754Z,7.05
2022-11-17T02:05:57.512Z,9.25
2022-11-17T02:08:29.135Z,9.27
2022-11-17T02:11:01.184Z,9.85
2022-11-17T02:13:32.053Z,8.70
2022-11-17T02:16:03.729Z,8.00
2022-11-17T02:18:34.257Z,8.32
2022-11-17T02:21:23.384Z,9.35
2022-11-17T02:24:09.155Z,9.40
2022-11-17T02:26:48.731Z,8.57
2022-11-17T02:29:37.824Z,8.20
2022-11-17T02:32:09.402Z,10.27
2022-11-17T02:34:39.499Z,12.27
2022-11-17T02:37:20.977Z,10.30
2022-11-17T02:40:09.535Z,8.93
2022-11-17T02:42:59.244Z,8.77
2022-11-17T02:45:31.749Z,10.95
2022-11-17T02:50:31.271Z,10.25
2022-11-17T02:53:01.233Z,10.82
2022-11-17T02:55:34.377Z,11.30
2022-11-17T02:58:04.342Z,10.98
2022-11-17T03:00:34.264Z,11.05
2022-11-17T03:03:12.718Z,10.55
2022-11-17T03:05:42.703Z,8.82
2022-11-17T03:08:32.633Z,9.00
2022-11-17T03:11:06.779Z,10.20
2022-11-17T03:13:36.949Z,10.45
2022-11-17T03:16:19.184Z,9.38
2022-11-17T03:18:53.906Z,8.43
2022-11-17T03:21:31.262Z,9.80
2022-11-17T03:24:05.826Z,9.07
2022-11-17T03:26:37.124Z,8.40
2022-11-17T03:29:07.988Z,10.43
2022-11-17T03:31:38.172Z,12.43
2022-11-17T03:34:09.857Z,11.35
2022-11-17T03:36:40.977Z,10.27
2022-11-17T03:39:12.832Z,11.15
2022-11-17T03:41:44.300Z,12.05
2022-11-17T03:44:15.183Z,9.10
2022-11-17T03:46:45.450Z,9.25
2022-11-17T03:49:23.329Z,8.80
2022-11-17T03:51:53.598Z,11.40
2022-11-17T03:54:24.510Z,9.13
2022-11-17T03:56:57.903Z,10.07
2022-11-17T03:59:49.052Z,9.38
2022-11-17T04:02:19.599Z,9.68
2022-11-17T04:05:07.638Z,11.25
2022-11-17T04:07:44.276Z,11.23
2022-11-17T04:10:15.693Z,11.50
2022-11-17T04:13:04.566Z,11.52
2022-11-17T04:16:03.886Z,10.82
2022-11-17T04:18:33.898Z,10.50
2022-11-17T04:21:04.962Z,9.38
2022-11-17T04:23:35.355Z,9.55
2022-11-17T04:26:23.814Z,8.95
2022-11-17T04:28:54.467Z,9.50
2022-11-17T04:31:25.921Z,9.75
2022-11-17T04:34:00.205Z,10.45
2022-11-17T04:36:31.346Z,11.02
2022-11-17T04:39:01.689Z,8.52
2022-11-17T04:41:50.068Z,9.70
2022-11-17T04:44:20.256Z,8.75
2022-11-17T04:46:50.337Z,8.50
2022-11-17T04:49:20.671Z,7.43
2022-11-17T04:51:50.848Z,7.85
2022-11-17T04:54:21.573Z,8.02
2022-11-17T04:56:51.479Z,7.32
2022-11-17T04:59:21.633Z,8.38
2022-11-17T05:01:51.707Z,8.23
2022-11-17T05:04:40.743Z,7.78
2022-11-17T05:07:10.731Z,7.15
2022-11-17T05:09:40.710Z,6.53
2022-11-17T05:12:29.683Z,7.70
2022-11-17T05:15:00.372Z,8.93
2022-11-17T05:17:31.019Z,6.85
2022-11-17T05:20:02.385Z,8.18
2022-11-17T05:22:51.208Z,7.28
2022-11-17T05:25:21.943Z,7.13
2022-11-17T05:27:52.129Z,8.30
2022-11-17T05:30:22.079Z,8.73
2022-11-17T05:32:52.094Z,8.60
2022-11-17T05:35:22.069Z,8.77
2022-11-17T05:37:52.304Z,8.55
2022-11-17T05:40:22.264Z,8.57
2022-11-17T05:42:56.966Z,8.98
2022-11-17T05:45:27.412Z,10.10
2022-11-17T05:47:57.512Z,8.07
2022-11-17T05:50:27.830Z,7.80
2022-11-17T05:53:03.982Z,8.05
2022-11-17T05:55:34.549Z,7.03
2022-11-17T05:58:06.275Z,7.28
2022-11-17T06:00:37.143Z,8.13
2022-11-17T06:03:08.188Z,7.03
2022-11-17T06:05:39.146Z,6.63
2022-11-17T06:08:09.440Z,5.53
2022-11-17T06:10:40.456Z,6.35
2022-11-17T06:13:11.299Z,5.75
2022-11-17T06:15:41.977Z,4.93
2022-11-17T06:18:15.990Z,4.90
2022-11-17T06:20:49.605Z,5.43
2022-11-17T06:23:19.937Z,4.57
2022-11-17T06:25:51.088Z,4.55
2022-11-17T06:28:21.921Z,5.00
2022-11-17T06:30:56.872Z,4.40
2022-11-17T06:33:34.065Z,3.67
2022-11-17T06:36:04.312Z,5.18
2022-11-17T06:38:36.941Z,3.88
2022-11-17T06:41:11.665Z,3.50
2022-11-17T06:43:41.991Z,3.80
2022-11-17T06:46:12.242Z,4.65
2022-11-17T06:48:45.965Z,4.68
2022-11-17T06:51:15.937Z,3.53
2022-11-17T06:53:45.904Z,3.30
2022-11-17T06:56:17.712Z,3.67
2022-11-17T06:58:49.065Z,3.72
2022-11-17T07:01:20.358Z,3.38
2022-11-17T07:03:50.506Z,3.30
2022-11-17T07:06:20.017Z,3.30
2022-11-17T07:08:51.937Z,3.22
2022-11-17T07:11:22.905Z,3.38
2022-11-17T07:13:52.394Z,3.33
2022-11-17T07:16:23.872Z,3.03
2022-11-17T07:18:54.768Z,2.83
2022-11-17T07:21:26.092Z,2.63
2022-11-17T07:23:57.981Z,2.35
2022-11-17T07:26:27.806Z,2.78
2022-11-17T07:28:57.320Z,2.45
2022-11-17T07:31:27.204Z,2.42
2022-11-17T07:33:56.759Z,2.97
2022-11-17T07:36:26.229Z,2.65
2022-11-17T07:38:55.690Z,2.30
2022-11-17T07:41:25.111Z,1.60
2022-11-17T07:43:55.016Z,2.17
2022-11-17T07:46:24.550Z,2.42
2022-11-17T07:48:57.303Z,1.90
2022-11-17T07:51:27.519Z,1.88
2022-11-17T07:53:57.553Z,1.90
2022-11-17T07:56:27.126Z,1.90
2022-11-17T07:58:58.034Z,2.00
2022-11-17T08:01:28.332Z,2.05
2022-11-17T08:03:58.665Z,2.35
2022-11-17T08:06:28.304Z,1.42
2022-11-17T08:08:57.880Z,1.75
2022-11-17T08:11:28.076Z,1.60
2022-11-17T08:13:59.651Z,1.77
2022-11-17T08:16:31.858Z,1.75
2022-11-17T08:19:01.747Z,1.50
2022-11-17T08:21:32.593Z,1.50
2022-11-17T08:24:02.259Z,1.52
2022-11-17T08:26:31.880Z,2.15
2022-11-17T08:29:02.616Z,1.65
2022-11-17T08:31:35.727Z,1.45
2022-11-17T08:34:09.896Z,1.15
2022-11-17T08:36:40.849Z,1.95
2022-11-17T08:39:10.898Z,2.28
2022-11-17T08:41:40.403Z,1.75
2022-11-17T08:44:09.838Z,1.80
2022-11-17T08:46:47.233Z,1.63
2022-11-17T08:49:21.426Z,1.35
2022-11-17T08:51:51.258Z,1.75
2022-11-17T08:54:20.688Z,2.35
2022-11-17T08:56:51.008Z,1.88
2022-11-17T08:59:21.364Z,1.77
2022-11-17T09:01:50.849Z,1.88
2022-11-17T09:04:20.546Z,2.10
2022-11-17T09:06:50.001Z,1.90
2022-11-17T09:09:19.598Z,1.77
2022-11-17T09:11:49.387Z,1.65
2022-11-17T09:14:19.285Z,1.80
2022-11-17T09:16:48.876Z,2.38
2022-11-17T09:19:18.528Z,2.05
2022-11-17T09:21:49.648Z,1.88
2022-11-17T09:24:19.333Z,2.58
2022-11-17T09:26:53.807Z,1.85
2022-11-17T09:29:29.097Z,2.53
2022-11-17T09:32:04.262Z,2.17
2022-11-17T09:34:33.825Z,2.40
2022-11-17T09:37:04.103Z,2.67
2022-11-17T09:39:33.773Z,1.85
2022-11-17T09:42:05.283Z,1.80
2022-11-17T09:44:51.750Z,2.30
2022-11-17T09:47:24.409Z,2.28
2022-11-17T09:50:00.083Z,2.28
2022-11-17T09:52:42.863Z,2.25
2022-11-17T09:59:00.274Z,2.10
2022-11-17T10:01:30.892Z,2.38
2022-11-17T10:04:02.110Z,2.05
2022-11-17T10:06:32.713Z,2.10
2022-11-17T10:11:37.982Z,2.10
2022-11-17T10:14:17.023Z,2.58
2022-11-17T10:16:48.779Z,6.32
2022-11-17T10:19:19.396Z,6.75
2022-11-17T10:22:00.453Z,7.03
2022-11-17T10:24:41.648Z,8.63
2022-11-17T10:27:23.758Z,6.78
2022-11-17T10:30:03.615Z,7.90
2022-11-17T10:32:35.639Z,10.18
2022-11-17T10:35:18.350Z,8.48
2022-11-17T10:37:56.329Z,7.80
2022-11-17T10:40:27.653Z,7.72
2022-11-17T10:43:02.365Z,7.75
2022-11-17T10:45:33.114Z,7.03
2022-11-17T10:48:14.466Z,6.47
2022-11-17T10:50:54.326Z,6.45
2022-11-17T10:53:28.226Z,5.93
2022-11-17T10:55:59.103Z,6.07
2022-11-17T10:58:30.050Z,5.75
2022-11-17T11:01:04.227Z,5.93
2022-11-17T11:03:35.751Z,5.88
2022-11-17T11:06:14.575Z,7.93
2022-11-17T11:09:06.686Z,6.68
2022-11-17T11:11:55.021Z,5.90
2022-11-17T11:14:30.853Z,6.30
2022-11-17T11:17:01.206Z,5.55
2022-11-17T11:19:31.449Z,6.15
2022-11-17T11:22:01.009Z,5.68
2022-11-17T11:24:45.945Z,5.93
2022-11-17T11:27:36.836Z,4.90
2022-11-17T11:30:07.699Z,5.88
2022-11-17T11:32:37.692Z,5.38
2022-11-17T11:35:23.012Z,5.85
2022-11-17T11:37:55.496Z,5.90
2022-11-17T11:43:00.855Z,5.57
2022-11-17T11:45:30.295Z,5.30
2022-11-17T11:48:14.742Z,5.28
2022-11-17T11:50:51.230Z,6.53
2022-11-17T11:53:21.483Z,5.47
2022-11-17T11:55:51.218Z,5.03
2022-11-17T11:58:23.874Z,6.45
2022-11-17T12:00:54.375Z,5.90
2022-11-17T12:03:37.867Z,6.45
2022-11-17T12:06:26.053Z,6.72
2022-11-17T12:09:03.148Z,5.63
2022-11-17T12:11:50.670Z,7.00
2022-11-17T12:14:22.070Z,6.53
2022-11-17T12:16:52.483Z,6.80
2022-11-17T12:19:40.850Z,7.00
2022-11-17T12:22:10.442Z,7.03
2022-11-17T12:24:41.688Z,6.70
2022-11-17T12:27:33.165Z,7.27
2022-11-17T12:30:06.218Z,7.85
2022-11-17T12:32:41.639Z,7.50
2022-11-17T12:35:25.437Z,7.60
2022-11-17T12:38:13.471Z,6.90
2022-11-17T12:40:47.041Z,6.40
2022-11-17T12:43:24.609Z,8.50
2022-11-17T12:45:54.440Z,8.23
2022-11-17T12:48:33.798Z,7.82
2022-11-17T12:51:11.312Z,6.97
2022-11-17T12:53:59.874Z,7.28
2022-11-17T12:56:47.672Z,8.65
2022-11-17T12:59:35.910Z,6.93
2022-11-17T13:02:14.853Z,7.90
2022-11-17T13:04:49.650Z,8.65
2022-11-17T13:07:23.944Z,8.70
2022-11-17T13:09:54.936Z,8.68
2022-11-17T13:12:30.908Z,9.35
2022-11-17T13:15:04.104Z,8.57
2022-11-17T13:17:45.030Z,7.20
2022-11-17T13:20:29.893Z,9.07
2022-11-17T13:23:07.870Z,9.60
2022-11-17T13:25:37.905Z,8.27
2022-11-17T13:28:07.904Z,9.75
2022-11-17T13:30:37.955Z,8.60
2022-11-17T13:33:11.102Z,9.20
2022-11-17T13:35:41.278Z,8.45
2022-11-17T13:38:13.600Z,7.72
2022-11-17T13:40:43.191Z,9.50
2022-11-17T13:43:16.454Z,8.68
2022-11-17T13:45:54.526Z,9.50
2022-11-17T13:48:37.019Z,10.80
2022-11-17T13:51:21.617Z,10.25
2022-11-17T13:53:56.061Z,8.90
2022-11-17T13:56:47.776Z,10.27
2022-11-17T13:59:28.863Z,10.77
2022-11-17T14:02:17.330Z,10.43
2022-11-17T14:05:05.994Z,10.35
2022-11-17T14:07:36.393Z,10.15
2022-11-17T14:10:24.879Z,10.15
2022-11-17T14:13:03.728Z,11.07
2022-11-17T14:15:34.077Z,11.25
2022-11-17T14:18:08.646Z,10.38
2022-11-17T14:20:38.982Z,9.95
2022-11-17T14:23:16.109Z,10.65
2022-11-17T14:25:46.966Z,11.73
2022-11-17T14:28:17.681Z,10.95
2022-11-17T14:30:51.315Z,10.75
2022-11-17T14:33:21.672Z,10.27
2022-11-17T14:36:01.190Z,11.25
2022-11-17T14:38:31.045Z,10.35
2022-11-17T14:41:00.553Z,10.13
2022-11-17T14:43:34.540Z,10.48
2022-11-17T14:46:05.681Z,11.00
2022-11-17T14:48:36.310Z,10.40
2022-11-17T14:51:08.261Z,11.03
2022-11-17T14:53:41.860Z,10.13
2022-11-17T14:56:12.850Z,10.38
2022-11-17T14:58:42.861Z,11.25
2022-11-17T15:01:13.340Z,10.82
2022-11-17T15:03:43.255Z,11.82
2022-11-17T15:06:19.363Z,11.00
2022-11-17T15:08:50.386Z,10.15
2022-11-17T15:11:19.992Z,10.73
2022-11-17T15:13:49.842Z,10.25
2022-11-17T15:16:19.931Z,10.02
2022-11-17T15:18:50.175Z,9.35
2022-11-17T15:21:25.143Z,10.63
2022-11-17T15:23:54.862Z,10.98
2022-11-17T15:26:24.491Z,8.98
2022-11-17T15:28:54.018Z,10.00
2022-11-17T15:31:23.414Z,10.52
2022-11-17T15:33:53.264Z,10.13
2022-11-17T15:36:26.635Z,9.68
2022-11-17T15:38:56.927Z,10.65
2022-11-17T15:41:32.399Z,9.95
2022-11-17T15:44:04.288Z,9.93
2022-11-17T15:46:34.495Z,9.00
2022-11-17T15:49:03.998Z,9.88
2022-11-17T15:51:33.989Z,9.30
2022-11-17T15:54:03.961Z,10.07
2022-11-17T15:56:40.323Z,9.30
2022-11-17T15:59:11.910Z,9.88
2022-11-17T16:01:41.991Z,9.25
2022-11-17T16:04:12.745Z,9.23
2022-11-17T16:06:42.839Z,10.63
2022-11-17T16:09:13.531Z,9.88
2022-11-17T16:11:43.648Z,9.18
2022-11-17T16:14:15.453Z,9.98
2022-11-17T16:16:47.553Z,9.32
2022-11-17T16:19:18.511Z,9.93
2022-11-17T16:21:49.055Z,10.13
2022-11-17T16:24:19.245Z,8.93
2022-11-17T16:26:49.034Z,8.77
2022-11-17T16:29:18.798Z,9.98
2022-11-17T16:31:49.040Z,10.55
2022-11-17T16:34:19.648Z,8.68
2022-11-17T16:36:49.587Z,8.13
2022-11-17T16:39:20.911Z,10.05
2022-11-17T16:41:52.034Z,8.30
2022-11-17T16:44:22.292Z,9.23
2022-11-17T16:46:51.989Z,8.77
2022-11-17T16:49:21.906Z,8.40
2022-11-17T16:51:52.283Z,7.85
2022-11-17T16:54:22.504Z,9.43
2022-11-17T16:56:52.114Z,8.65
2022-11-17T16:59:21.675Z,9.07
2022-11-17T17:01:51.131Z,8.63
2022-11-17T17:04:20.615Z,8.27
2022-11-17T17:06:50.513Z,8.57
2022-11-17T17:09:26.412Z,9.88
2022-11-17T17:11:57.491Z,7.05
2022-11-17T17:14:26.996Z,8.88
2022-11-17T17:16:56.929Z,9.05
2022-11-17T17:19:27.796Z,8.00
2022-11-17T17:21:59.221Z,8.23
2022-11-17T17:24:29.439Z,8.45
2022-11-17T17:26:59.498Z,8.43
2022-11-17T17:29:29.405Z,8.27
2022-11-17T17:31:58.810Z,8.13
2022-11-17T17:34:28.320Z,8.07
2022-11-17T17:36:58.192Z,7.85
2022-11-17T17:39:27.691Z,7.60
2022-11-17T17:41:57.620Z,8.18
2022-11-17T17:44:27.145Z,7.15
2022-11-17T17:46:58.559Z,7.88
2022-11-17T17:49:28.616Z,8.35
2022-11-17T17:51:58.497Z,7.95
2022-11-17T17:54:28.476Z,7.68
2022-11-17T17:56:58.511Z,7.68
2022-11-17T17:59:28.392Z,8.38
2022-11-17T18:01:57.976Z,7.15
2022-11-17T18:04:27.625Z,8.25
2022-11-17T18:06:58.581Z,7.35
2022-11-17T18:09:28.646Z,7.45
2022-11-17T18:11:58.753Z,6.72
2022-11-17T18:14:29.020Z,7.53
2022-11-17T18:16:59.363Z,6.80
2022-11-17T18:19:33.034Z,7.00
2022-11-17T18:22:02.991Z,7.53
2022-11-17T18:24:33.385Z,6.43
2022-11-17T18:27:03.228Z,7.60
2022-11-17T18:29:32.604Z,7.28
2022-11-17T18:32:02.533Z,7.78
2022-11-17T18:34:32.047Z,6.90
2022-11-17T18:37:01.419Z,7.28
2022-11-17T18:39:32.294Z,6.82
2022-11-17T18:42:02.446Z,7.05
2022-11-17T18:44:32.581Z,7.15
2022-11-17T18:47:03.234Z,6.78
2022-11-17T18:49:35.134Z,6.63
2022-11-17T18:52:05.686Z,6.82
2022-11-17T18:54:35.343Z,6.22
2022-11-17T18:57:07.551Z,6.30
2022-11-17T18:59:37.039Z,6.35
2022-11-17T19:02:06.453Z,6.20
2022-11-17T19:04:36.834Z,7.35
2022-11-17T19:07:06.478Z,6.40
2022-11-17T19:09:36.336Z,6.97
2022-11-17T19:12:06.427Z,6.15
2022-11-17T19:14:36.461Z,7.18
2022-11-17T19:17:06.768Z,7.20
2022-11-17T19:19:36.251Z,6.18
2022-11-17T19:22:05.752Z,6.60
2022-11-17T19:24:35.254Z,6.07
2022-11-17T19:27:04.801Z,6.78
2022-11-17T19:29:34.664Z,6.63
2022-11-17T19:32:04.754Z,6.40
2022-11-17T19:34:34.724Z,5.35
2022-11-17T19:37:04.681Z,6.55
2022-11-17T19:39:36.671Z,7.15
2022-11-17T19:42:06.246Z,6.45
2022-11-17T19:44:36.231Z,5.53
2022-11-17T19:47:06.048Z,6.88
2022-11-17T19:49:35.452Z,5.85
2022-11-17T19:52:05.524Z,6.50
2022-11-17T19:54:35.778Z,5.82
2022-11-17T19:57:05.416Z,5.43
2022-11-17T19:59:35.264Z,5.88
2022-11-17T20:02:05.319Z,6.28
2022-11-17T20:04:35.081Z,6.07
2022-11-17T20:07:04.484Z,5.95
2022-11-17T20:09:33.944Z,5.40
2022-11-17T20:12:03.938Z,6.80
2022-11-17T20:14:36.163Z,5.60
2022-11-17T20:17:05.589Z,5.32
2022-11-17T20:19:35.531Z,6.25
2022-11-17T20:22:05.545Z,6.75
2022-11-17T20:24:35.467Z,6.05
2022-11-17T20:27:05.721Z,5.22
2022-11-17T20:29:35.536Z,6.00
2022-11-17T20:32:05.542Z,7.00
2022-11-17T20:34:35.066Z,5.55
2022-11-17T20:37:05.021Z,5.00
2022-11-17T20:39:34.506Z,7.28
2022-11-17T20:42:03.941Z,5.53
2022-11-17T20:44:33.411Z,5.55
2022-11-17T20:47:03.275Z,5.18
2022-11-17T20:49:33.554Z,5.07
2022-11-17T20:52:03.093Z,4.75
2022-11-17T20:54:35.911Z,5.30
2022-11-17T20:57:05.518Z,5.85
2022-11-17T20:59:42.978Z,5.45
2022-11-17T21:02:13.447Z,4.72
2022-11-17T21:04:42.953Z,5.13
2022-11-17T21:07:12.836Z,5.22
2022-11-17T21:09:42.557Z,5.82
2022-11-17T21:12:11.958Z,4.47
2022-11-17T21:14:41.330Z,4.53
2022-11-17T21:17:31.052Z,4.75
2022-11-17T21:20:00.551Z,4.95
2022-11-17T21:22:30.197Z,5.32
2022-11-17T21:24:59.595Z,4.60
2022-11-17T21:27:29.676Z,4.93
2022-11-17T21:29:59.904Z,4.65
2022-11-17T21:32:31.011Z,5.00
2022-11-17T21:35:01.858Z,5.53
2022-11-17T21:37:31.286Z,5.22
2022-11-17T21:40:01.953Z,4.93
2022-11-17T21:42:31.459Z,4.90
2022-11-17T21:45:01.337Z,5.20
2022-11-17T21:47:31.110Z,5.28
2022-11-17T21:50:00.585Z,4.45
2022-11-17T21:52:30.406Z,5.40
2022-11-17T21:54:59.873Z,4.55
2022-11-17T21:57:29.355Z,5.53
2022-11-17T21:59:59.441Z,5.55
2022-11-17T22:02:28.816Z,5.38
2022-11-17T22:04:58.724Z,4.72
2022-11-17T22:07:29.633Z,6.70
2022-11-17T22:09:59.665Z,6.20
2022-11-17T22:12:29.260Z,5.03
2022-11-17T22:14:58.689Z,5.47
2022-11-17T22:17:28.608Z,4.63
2022-11-17T22:19:58.532Z,4.50
2022-11-17T22:22:28.466Z,5.90
2022-11-17T22:25:07.292Z,5.32
2022-11-17T22:27:48.448Z,5.03
2022-11-17T22:30:18.182Z,5.45
2022-11-17T22:32:47.608Z,5.65
2022-11-17T22:35:17.447Z,4.80
2022-11-17T22:37:47.402Z,5.32
2022-11-17T22:40:20.241Z,4.72
2022-11-17T22:42:50.359Z,4.65
2022-11-17T22:45:20.227Z,4.57
2022-11-17T22:47:49.723Z,5.10
2022-11-17T22:50:19.146Z,4.57
2022-11-17T22:52:49.684Z,4.88
2022-11-17T22:55:19.547Z,5.13
2022-11-17T22:57:49.517Z,4.35
2022-11-17T23:00:19.641Z,5.05
2022-11-17T23:02:49.638Z,5.65
2022-11-17T23:05:19.697Z,5.20
2022-11-17T23:07:49.142Z,5.35
2022-11-17T23:10:18.650Z,4.75
2022-11-17T23:12:48.455Z,5.18
2022-11-17T23:15:17.933Z,4.50
2022-11-17T23:17:47.419Z,5.25
2022-11-17T23:20:17.527Z,6.45
2022-11-17T23:22:47.485Z,4.72
2022-11-17T23:25:16.965Z,4.85
2022-11-17T23:27:46.814Z,4.75
2022-11-17T23:30:16.376Z,4.60
2022-11-17T23:32:46.326Z,4.45
2022-11-17T23:35:15.895Z,4.30
2022-11-17T23:37:45.471Z,4.57
2022-11-17T23:40:15.111Z,6.10
2022-11-17T23:42:44.993Z,5.43
2022-11-17T23:45:15.073Z,5.45
2022-11-17T23:47:44.698Z,4.72
2022-11-17T23:50:14.090Z,4.50
2022-11-17T23:52:43.568Z,4.15
2022-11-17T23:55:12.968Z,4.63
2022-11-17T23:57:42.810Z,5.63
